sensor_id;sensor_type;location;lat;lon;timestamp;P1;durP1;ratioP1;P2;durP2;ratioP2
67997;SDS011;54773;53.388;-1.504;2024-01-30T00:02:28;31.77;;;16.88;;
67997;SDS011;54773;53.388;-1.504;2024-01-30T00:05:12;28.50;;;15.73;;
67997;SDS011;54773;53.388;-1.504;2024-01-30T00:07:56;32.88;;;16.23;;
67997;SDS011;54773;53.388;-1.504;2024-01-30T00:10:40;31.63;;;17.30;;
67997;SDS011;54773;53.388;-1.504;2024-01-30T00:13:24;30.17;;;14.97;;
67997;SDS011;54773;53.388;-1.504;2024-01-30T00:16:08;31.93;;;15.60;;
67997;SDS011;54773;53.388;-1.504;2024-01-30T00:18:53;31.77;;;16.83;;
67997;SDS011;54773;53.388;-1.504;2024-01-30T00:21:37;34.15;;;16.70;;
67997;SDS011;54773;53.388;-1.504;2024-01-30T00:24:21;35.95;;;16.17;;
67997;SDS011;54773;53.388;-1.504;2024-01-30T00:27:05;30.63;;;15.87;;
67997;SDS011;54773;53.388;-1.504;2024-01-30T00:29:48;32.40;;;16.50;;
67997;SDS011;54773;53.388;-1.504;2024-01-30T00:32:32;35.77;;;18.60;;
67997;SDS011;54773;53.388;-1.504;2024-01-30T00:35:16;40.27;;;19.33;;
67997;SDS011;54773;53.388;-1.504;2024-01-30T00:38:01;36.78;;;19.25;;
67997;SDS011;54773;53.388;-1.504;2024-01-30T00:40:45;41.17;;;19.50;;
67997;SDS011;54773;53.388;-1.504;2024-01-30T00:43:29;33.65;;;18.67;;
67997;SDS011;54773;53.388;-1.504;2024-01-30T00:46:15;37.38;;;18.92;;
67997;SDS011;54773;53.388;-1.504;2024-01-30T00:48:59;36.20;;;19.40;;
67997;SDS011;54773;53.388;-1.504;2024-01-30T00:51:43;49.47;;;21.13;;
67997;SDS011;54773;53.388;-1.504;2024-01-30T00:54:27;40.30;;;19.02;;
67997;SDS011;54773;53.388;-1.504;2024-01-30T00:57:11;36.97;;;18.73;;
67997;SDS011;54773;53.388;-1.504;2024-01-30T00:59:55;34.15;;;17.42;;
67997;SDS011;54773;53.388;-1.504;2024-01-30T01:02:39;37.55;;;18.55;;
67997;SDS011;54773;53.388;-1.504;2024-01-30T01:05:23;32.13;;;16.42;;
67997;SDS011;54773;53.388;-1.504;2024-01-30T01:08:08;33.17;;;16.58;;
67997;SDS011;54773;53.388;-1.504;2024-01-30T01:13:36;35.60;;;16.65;;
67997;SDS011;54773;53.388;-1.504;2024-01-30T01:16:20;35.10;;;16.40;;
67997;SDS011;54773;53.388;-1.504;2024-01-30T01:19:04;31.90;;;16.10;;
67997;SDS011;54773;53.388;-1.504;2024-01-30T01:21:48;33.87;;;15.90;;
67997;SDS011;54773;53.388;-1.504;2024-01-30T01:24:32;31.63;;;16.30;;
67997;SDS011;54773;53.388;-1.504;2024-01-30T01:27:16;31.67;;;16.20;;
67997;SDS011;54773;53.388;-1.504;2024-01-30T01:30:00;38.97;;;17.77;;
67997;SDS011;54773;53.388;-1.504;2024-01-30T01:32:44;34.83;;;16.95;;
67997;SDS011;54773;53.388;-1.504;2024-01-30T01:35:34;31.02;;;15.98;;
67997;SDS011;54773;53.388;-1.504;2024-01-30T01:38:18;31.08;;;16.08;;
67997;SDS011;54773;53.388;-1.504;2024-01-30T01:41:02;31.80;;;16.70;;
67997;SDS011;54773;53.388;-1.504;2024-01-30T01:43:46;35.67;;;16.47;;
67997;SDS011;54773;53.388;-1.504;2024-01-30T01:46:30;31.53;;;16.33;;
67997;SDS011;54773;53.388;-1.504;2024-01-30T01:49:16;30.58;;;16.00;;
67997;SDS011;54773;53.388;-1.504;2024-01-30T01:52:00;27.70;;;15.13;;
67997;SDS011;54773;53.388;-1.504;2024-01-30T01:54:44;28.63;;;15.47;;
67997;SDS011;54773;53.388;-1.504;2024-01-30T01:57:28;31.02;;;15.30;;
67997;SDS011;54773;53.388;-1.504;2024-01-30T02:00:12;25.02;;;14.05;;
67997;SDS011;54773;53.388;-1.504;2024-01-30T02:05:41;27.98;;;14.23;;
67997;SDS011;54773;53.388;-1.504;2024-01-30T02:08:26;26.48;;;14.20;;
67997;SDS011;54773;53.388;-1.504;2024-01-30T02:11:10;24.90;;;14.05;;
67997;SDS011;54773;53.388;-1.504;2024-01-30T02:13:54;27.02;;;13.35;;
67997;SDS011;54773;53.388;-1.504;2024-01-30T02:16:38;29.08;;;13.23;;
67997;SDS011;54773;53.388;-1.504;2024-01-30T02:19:22;20.10;;;11.33;;
67997;SDS011;54773;53.388;-1.504;2024-01-30T02:22:06;14.27;;;9.13;;
67997;SDS011;54773;53.388;-1.504;2024-01-30T02:27:35;6.95;;;4.72;;
67997;SDS011;54773;53.388;-1.504;2024-01-30T02:30:19;8.37;;;4.90;;
67997;SDS011;54773;53.388;-1.504;2024-01-30T02:33:02;8.20;;;3.70;;
67997;SDS011;54773;53.388;-1.504;2024-01-30T02:35:46;5.10;;;2.90;;
67997;SDS011;54773;53.388;-1.504;2024-01-30T02:38:30;4.25;;;2.30;;
67997;SDS011;54773;53.388;-1.504;2024-01-30T02:41:15;3.60;;;1.83;;
67997;SDS011;54773;53.388;-1.504;2024-01-30T02:43:59;4.90;;;2.20;;
67997;SDS011;54773;53.388;-1.504;2024-01-30T02:46:42;4.03;;;1.80;;
67997;SDS011;54773;53.388;-1.504;2024-01-30T02:49:26;4.07;;;1.93;;
67997;SDS011;54773;53.388;-1.504;2024-01-30T02:52:10;4.60;;;2.10;;
67997;SDS011;54773;53.388;-1.504;2024-01-30T02:54:54;5.63;;;2.30;;
67997;SDS011;54773;53.388;-1.504;2024-01-30T02:57:38;4.88;;;2.40;;
67997;SDS011;54773;53.388;-1.504;2024-01-30T03:00:23;4.85;;;2.50;;
67997;SDS011;54773;53.388;-1.504;2024-01-30T03:03:07;7.80;;;2.97;;
67997;SDS011;54773;53.388;-1.504;2024-01-30T03:05:51;4.20;;;2.25;;
67997;SDS011;54773;53.388;-1.504;2024-01-30T03:08:35;4.20;;;2.10;;
67997;SDS011;54773;53.388;-1.504;2024-01-30T03:11:20;3.50;;;1.70;;
67997;SDS011;54773;53.388;-1.504;2024-01-30T03:14:03;3.63;;;1.80;;
67997;SDS011;54773;53.388;-1.504;2024-01-30T03:16:48;4.13;;;2.00;;
67997;SDS011;54773;53.388;-1.504;2024-01-30T03:19:32;4.03;;;2.10;;
67997;SDS011;54773;53.388;-1.504;2024-01-30T03:22:16;3.13;;;1.48;;
67997;SDS011;54773;53.388;-1.504;2024-01-30T03:25:00;3.30;;;1.75;;
67997;SDS011;54773;53.388;-1.504;2024-01-30T03:27:44;3.67;;;1.83;;
67997;SDS011;54773;53.388;-1.504;2024-01-30T03:30:28;3.63;;;1.50;;
67997;SDS011;54773;53.388;-1.504;2024-01-30T03:33:12;3.50;;;1.55;;
67997;SDS011;54773;53.388;-1.504;2024-01-30T03:35:56;3.20;;;1.50;;
67997;SDS011;54773;53.388;-1.504;2024-01-30T03:38:40;2.65;;;1.00;;
67997;SDS011;54773;53.388;-1.504;2024-01-30T03:41:24;2.30;;;1.10;;
67997;SDS011;54773;53.388;-1.504;2024-01-30T03:44:07;2.42;;;0.98;;
67997;SDS011;54773;53.388;-1.504;2024-01-30T03:46:51;2.00;;;1.00;;
67997;SDS011;54773;53.388;-1.504;2024-01-30T03:49:36;1.73;;;0.90;;
67997;SDS011;54773;53.388;-1.504;2024-01-30T03:52:19;2.43;;;1.03;;
67997;SDS011;54773;53.388;-1.504;2024-01-30T03:55:03;1.83;;;0.80;;
67997;SDS011;54773;53.388;-1.504;2024-01-30T04:00:32;3.53;;;0.80;;
67997;SDS011;54773;53.388;-1.504;2024-01-30T04:03:16;1.33;;;0.60;;
67997;SDS011;54773;53.388;-1.504;2024-01-30T04:06:00;1.48;;;0.60;;
67997;SDS011;54773;53.388;-1.504;2024-01-30T04:08:44;1.02;;;0.52;;
67997;SDS011;54773;53.388;-1.504;2024-01-30T04:11:28;1.17;;;0.60;;
67997;SDS011;54773;53.388;-1.504;2024-01-30T04:14:11;2.60;;;1.10;;
67997;SDS011;54773;53.388;-1.504;2024-01-30T04:16:55;2.25;;;1.08;;
67997;SDS011;54773;53.388;-1.504;2024-01-30T04:19:40;2.70;;;1.13;;
67997;SDS011;54773;53.388;-1.504;2024-01-30T04:22:24;3.05;;;1.30;;
67997;SDS011;54773;53.388;-1.504;2024-01-30T04:25:08;2.83;;;1.10;;
67997;SDS011;54773;53.388;-1.504;2024-01-30T04:27:52;2.67;;;1.05;;
67997;SDS011;54773;53.388;-1.504;2024-01-30T04:30:36;3.13;;;1.52;;
67997;SDS011;54773;53.388;-1.504;2024-01-30T04:33:20;2.95;;;1.30;;
67997;SDS011;54773;53.388;-1.504;2024-01-30T04:36:04;3.27;;;1.50;;
67997;SDS011;54773;53.388;-1.504;2024-01-30T04:38:49;3.22;;;1.40;;
67997;SDS011;54773;53.388;-1.504;2024-01-30T04:41:33;4.28;;;1.77;;
67997;SDS011;54773;53.388;-1.504;2024-01-30T04:44:17;3.88;;;1.70;;
67997;SDS011;54773;53.388;-1.504;2024-01-30T04:47:01;3.75;;;1.50;;
67997;SDS011;54773;53.388;-1.504;2024-01-30T04:49:45;3.65;;;1.58;;
67997;SDS011;54773;53.388;-1.504;2024-01-30T04:52:29;3.53;;;1.53;;
67997;SDS011;54773;53.388;-1.504;2024-01-30T04:55:13;4.75;;;2.42;;
67997;SDS011;54773;53.388;-1.504;2024-01-30T04:57:57;2.97;;;1.20;;
67997;SDS011;54773;53.388;-1.504;2024-01-30T05:00:41;2.63;;;1.00;;
67997;SDS011;54773;53.388;-1.504;2024-01-30T05:03:24;3.70;;;1.20;;
67997;SDS011;54773;53.388;-1.504;2024-01-30T05:06:09;2.40;;;1.08;;
67997;SDS011;54773;53.388;-1.504;2024-01-30T05:08:53;3.40;;;1.20;;
67997;SDS011;54773;53.388;-1.504;2024-01-30T05:11:37;3.50;;;1.10;;
67997;SDS011;54773;53.388;-1.504;2024-01-30T05:14:23;3.53;;;1.40;;
67997;SDS011;54773;53.388;-1.504;2024-01-30T05:17:07;3.17;;;1.48;;
67997;SDS011;54773;53.388;-1.504;2024-01-30T05:19:56;3.47;;;1.58;;
67997;SDS011;54773;53.388;-1.504;2024-01-30T05:22:40;3.42;;;1.40;;
67997;SDS011;54773;53.388;-1.504;2024-01-30T05:25:28;4.65;;;1.63;;
67997;SDS011;54773;53.388;-1.504;2024-01-30T05:28:12;3.60;;;1.50;;
67997;SDS011;54773;53.388;-1.504;2024-01-30T05:30:56;2.90;;;1.40;;
67997;SDS011;54773;53.388;-1.504;2024-01-30T05:33:40;5.77;;;1.47;;
67997;SDS011;54773;53.388;-1.504;2024-01-30T05:36:25;4.07;;;1.70;;
67997;SDS011;54773;53.388;-1.504;2024-01-30T05:39:09;3.70;;;1.50;;
67997;SDS011;54773;53.388;-1.504;2024-01-30T05:41:54;4.75;;;1.77;;
67997;SDS011;54773;53.388;-1.504;2024-01-30T05:44:38;4.15;;;1.52;;
67997;SDS011;54773;53.388;-1.504;2024-01-30T05:47:22;4.00;;;1.60;;
67997;SDS011;54773;53.388;-1.504;2024-01-30T05:50:06;3.73;;;1.40;;
67997;SDS011;54773;53.388;-1.504;2024-01-30T05:52:50;3.40;;;1.45;;
67997;SDS011;54773;53.388;-1.504;2024-01-30T05:55:34;3.85;;;1.42;;
67997;SDS011;54773;53.388;-1.504;2024-01-30T05:58:18;4.67;;;1.47;;
67997;SDS011;54773;53.388;-1.504;2024-01-30T06:01:02;3.37;;;1.30;;
67997;SDS011;54773;53.388;-1.504;2024-01-30T06:03:51;5.63;;;1.40;;
67997;SDS011;54773;53.388;-1.504;2024-01-30T06:06:34;2.50;;;0.95;;
67997;SDS011;54773;53.388;-1.504;2024-01-30T06:09:18;3.40;;;1.00;;
67997;SDS011;54773;53.388;-1.504;2024-01-30T06:12:02;1.80;;;0.85;;
67997;SDS011;54773;53.388;-1.504;2024-01-30T06:14:48;1.40;;;0.60;;
67997;SDS011;54773;53.388;-1.504;2024-01-30T06:17:32;2.40;;;0.73;;
67997;SDS011;54773;53.388;-1.504;2024-01-30T06:20:16;1.75;;;0.80;;
67997;SDS011;54773;53.388;-1.504;2024-01-30T06:23:00;2.10;;;0.80;;
67997;SDS011;54773;53.388;-1.504;2024-01-30T06:25:44;1.35;;;0.63;;
67997;SDS011;54773;53.388;-1.504;2024-01-30T06:28:28;1.58;;;0.70;;
67997;SDS011;54773;53.388;-1.504;2024-01-30T06:31:12;1.40;;;0.70;;
67997;SDS011;54773;53.388;-1.504;2024-01-30T06:33:56;1.37;;;0.60;;
67997;SDS011;54773;53.388;-1.504;2024-01-30T06:36:40;1.73;;;0.80;;
67997;SDS011;54773;53.388;-1.504;2024-01-30T06:39:24;2.03;;;0.82;;
67997;SDS011;54773;53.388;-1.504;2024-01-30T06:42:09;1.83;;;0.70;;
67997;SDS011;54773;53.388;-1.504;2024-01-30T06:44:54;1.33;;;0.52;;
67997;SDS011;54773;53.388;-1.504;2024-01-30T06:47:38;0.83;;;0.50;;
67997;SDS011;54773;53.388;-1.504;2024-01-30T06:50:22;2.55;;;0.60;;
67997;SDS011;54773;53.388;-1.504;2024-01-30T06:53:06;1.00;;;0.40;;
67997;SDS011;54773;53.388;-1.504;2024-01-30T06:55:51;1.35;;;0.63;;
67997;SDS011;54773;53.388;-1.504;2024-01-30T06:58:35;3.15;;;0.50;;
67997;SDS011;54773;53.388;-1.504;2024-01-30T07:01:19;3.20;;;0.60;;
67997;SDS011;54773;53.388;-1.504;2024-01-30T07:04:04;1.50;;;0.60;;
67997;SDS011;54773;53.388;-1.504;2024-01-30T07:06:48;0.83;;;0.40;;
67997;SDS011;54773;53.388;-1.504;2024-01-30T07:09:32;0.93;;;0.50;;
67997;SDS011;54773;53.388;-1.504;2024-01-30T07:12:18;2.10;;;0.70;;
67997;SDS011;54773;53.388;-1.504;2024-01-30T07:15:02;1.35;;;0.50;;
67997;SDS011;54773;53.388;-1.504;2024-01-30T07:17:46;1.67;;;0.60;;
67997;SDS011;54773;53.388;-1.504;2024-01-30T07:20:30;1.30;;;0.60;;
67997;SDS011;54773;53.388;-1.504;2024-01-30T07:23:15;1.13;;;0.60;;
67997;SDS011;54773;53.388;-1.504;2024-01-30T07:26:01;2.63;;;0.98;;
67997;SDS011;54773;53.388;-1.504;2024-01-30T07:28:45;2.05;;;0.88;;
67997;SDS011;54773;53.388;-1.504;2024-01-30T07:31:29;1.27;;;0.73;;
67997;SDS011;54773;53.388;-1.504;2024-01-30T07:34:13;1.87;;;0.87;;
67997;SDS011;54773;53.388;-1.504;2024-01-30T07:36:57;1.45;;;0.68;;
67997;SDS011;54773;53.388;-1.504;2024-01-30T07:39:41;1.30;;;0.68;;
67997;SDS011;54773;53.388;-1.504;2024-01-30T07:42:26;1.83;;;0.75;;
67997;SDS011;54773;53.388;-1.504;2024-01-30T07:45:10;2.17;;;0.82;;
67997;SDS011;54773;53.388;-1.504;2024-01-30T07:47:54;1.85;;;0.75;;
67997;SDS011;54773;53.388;-1.504;2024-01-30T07:50:38;2.67;;;1.10;;
67997;SDS011;54773;53.388;-1.504;2024-01-30T07:53:22;2.07;;;0.83;;
67997;SDS011;54773;53.388;-1.504;2024-01-30T07:56:05;2.67;;;1.15;;
67997;SDS011;54773;53.388;-1.504;2024-01-30T07:58:49;2.80;;;1.10;;
67997;SDS011;54773;53.388;-1.504;2024-01-30T08:01:34;3.03;;;1.30;;
67997;SDS011;54773;53.388;-1.504;2024-01-30T08:04:18;3.22;;;1.08;;
67997;SDS011;54773;53.388;-1.504;2024-01-30T08:07:02;3.05;;;1.20;;
67997;SDS011;54773;53.388;-1.504;2024-01-30T08:09:47;4.28;;;1.02;;
67997;SDS011;54773;53.388;-1.504;2024-01-30T08:12:31;1.83;;;0.90;;
67997;SDS011;54773;53.388;-1.504;2024-01-30T08:15:15;1.30;;;0.70;;
67997;SDS011;54773;53.388;-1.504;2024-01-30T08:17:59;0.80;;;0.50;;
67997;SDS011;54773;53.388;-1.504;2024-01-30T08:20:43;1.73;;;0.73;;
67997;SDS011;54773;53.388;-1.504;2024-01-30T08:23:26;0.97;;;0.67;;
67997;SDS011;54773;53.388;-1.504;2024-01-30T08:26:10;2.08;;;0.80;;
67997;SDS011;54773;53.388;-1.504;2024-01-30T08:28:54;1.92;;;0.82;;
67997;SDS011;54773;53.388;-1.504;2024-01-30T08:31:38;2.45;;;0.90;;
67997;SDS011;54773;53.388;-1.504;2024-01-30T08:34:22;2.65;;;1.27;;
67997;SDS011;54773;53.388;-1.504;2024-01-30T08:37:06;4.03;;;1.13;;
67997;SDS011;54773;53.388;-1.504;2024-01-30T08:39:50;3.38;;;1.30;;
67997;SDS011;54773;53.388;-1.504;2024-01-30T08:42:34;2.20;;;1.10;;
67997;SDS011;54773;53.388;-1.504;2024-01-30T08:45:18;2.33;;;1.05;;
67997;SDS011;54773;53.388;-1.504;2024-01-30T08:48:02;2.90;;;1.30;;
67997;SDS011;54773;53.388;-1.504;2024-01-30T08:50:47;2.80;;;1.20;;
67997;SDS011;54773;53.388;-1.504;2024-01-30T08:53:31;2.40;;;1.05;;
67997;SDS011;54773;53.388;-1.504;2024-01-30T08:56:15;1.93;;;0.90;;
67997;SDS011;54773;53.388;-1.504;2024-01-30T08:59:00;1.70;;;0.80;;
67997;SDS011;54773;53.388;-1.504;2024-01-30T09:01:44;1.35;;;0.70;;
67997;SDS011;54773;53.388;-1.504;2024-01-30T09:04:27;2.33;;;0.80;;
67997;SDS011;54773;53.388;-1.504;2024-01-30T09:07:12;1.27;;;0.60;;
67997;SDS011;54773;53.388;-1.504;2024-01-30T09:09:57;2.00;;;0.75;;
67997;SDS011;54773;53.388;-1.504;2024-01-30T09:12:41;1.15;;;0.65;;
67997;SDS011;54773;53.388;-1.504;2024-01-30T09:15:25;1.98;;;0.77;;
67997;SDS011;54773;53.388;-1.504;2024-01-30T09:18:09;2.05;;;0.70;;
67997;SDS011;54773;53.388;-1.504;2024-01-30T09:20:53;1.38;;;0.65;;
67997;SDS011;54773;53.388;-1.504;2024-01-30T09:23:37;1.77;;;0.70;;
67997;SDS011;54773;53.388;-1.504;2024-01-30T09:26:21;2.05;;;0.85;;
67997;SDS011;54773;53.388;-1.504;2024-01-30T09:29:05;1.13;;;0.63;;
67997;SDS011;54773;53.388;-1.504;2024-01-30T09:31:49;1.52;;;0.70;;
67997;SDS011;54773;53.388;-1.504;2024-01-30T09:34:33;1.70;;;1.02;;
67997;SDS011;54773;53.388;-1.504;2024-01-30T09:37:17;1.87;;;0.80;;
67997;SDS011;54773;53.388;-1.504;2024-01-30T09:40:01;2.17;;;0.88;;
67997;SDS011;54773;53.388;-1.504;2024-01-30T09:42:46;1.83;;;0.90;;
67997;SDS011;54773;53.388;-1.504;2024-01-30T09:45:34;1.83;;;0.88;;
67997;SDS011;54773;53.388;-1.504;2024-01-30T09:48:18;2.15;;;0.90;;
67997;SDS011;54773;53.388;-1.504;2024-01-30T09:51:03;1.92;;;0.82;;
67997;SDS011;54773;53.388;-1.504;2024-01-30T09:53:47;1.10;;;0.55;;
67997;SDS011;54773;53.388;-1.504;2024-01-30T09:56:31;1.23;;;0.70;;
67997;SDS011;54773;53.388;-1.504;2024-01-30T09:59:15;1.33;;;0.70;;
67997;SDS011;54773;53.388;-1.504;2024-01-30T10:02:00;1.30;;;0.70;;
67997;SDS011;54773;53.388;-1.504;2024-01-30T10:04:44;1.05;;;0.60;;
67997;SDS011;54773;53.388;-1.504;2024-01-30T10:07:31;1.30;;;0.70;;
67997;SDS011;54773;53.388;-1.504;2024-01-30T10:10:15;1.65;;;0.80;;
67997;SDS011;54773;53.388;-1.504;2024-01-30T10:12:59;0.73;;;0.55;;
67997;SDS011;54773;53.388;-1.504;2024-01-30T10:15:43;1.40;;;0.77;;
67997;SDS011;54773;53.388;-1.504;2024-01-30T10:18:28;2.03;;;0.90;;
67997;SDS011;54773;53.388;-1.504;2024-01-30T10:21:12;1.67;;;0.80;;
67997;SDS011;54773;53.388;-1.504;2024-01-30T10:23:56;2.23;;;0.90;;
67997;SDS011;54773;53.388;-1.504;2024-01-30T10:26:40;1.88;;;0.90;;
67997;SDS011;54773;53.388;-1.504;2024-01-30T10:29:24;2.65;;;1.13;;
67997;SDS011;54773;53.388;-1.504;2024-01-30T10:32:08;1.70;;;0.80;;
67997;SDS011;54773;53.388;-1.504;2024-01-30T10:34:52;1.65;;;0.80;;
67997;SDS011;54773;53.388;-1.504;2024-01-30T10:37:36;1.77;;;0.63;;
67997;SDS011;54773;53.388;-1.504;2024-01-30T10:40:21;1.23;;;0.63;;
67997;SDS011;54773;53.388;-1.504;2024-01-30T10:43:05;2.00;;;0.90;;
67997;SDS011;54773;53.388;-1.504;2024-01-30T10:45:50;2.17;;;1.10;;
67997;SDS011;54773;53.388;-1.504;2024-01-30T10:48:41;2.45;;;1.20;;
67997;SDS011;54773;53.388;-1.504;2024-01-30T10:51:26;2.10;;;1.20;;
67997;SDS011;54773;53.388;-1.504;2024-01-30T10:54:11;2.38;;;1.20;;
67997;SDS011;54773;53.388;-1.504;2024-01-30T10:56:57;2.10;;;1.00;;
67997;SDS011;54773;53.388;-1.504;2024-01-30T10:59:42;1.27;;;0.70;;
67997;SDS011;54773;53.388;-1.504;2024-01-30T11:02:26;1.50;;;0.82;;
67997;SDS011;54773;53.388;-1.504;2024-01-30T11:05:11;2.17;;;0.90;;
67997;SDS011;54773;53.388;-1.504;2024-01-30T11:07:55;2.63;;;1.33;;
67997;SDS011;54773;53.388;-1.504;2024-01-30T11:10:46;2.67;;;1.00;;
67997;SDS011;54773;53.388;-1.504;2024-01-30T11:13:31;2.78;;;1.27;;
67997;SDS011;54773;53.388;-1.504;2024-01-30T11:16:15;3.00;;;1.30;;
67997;SDS011;54773;53.388;-1.504;2024-01-30T11:19:00;3.00;;;1.30;;
67997;SDS011;54773;53.388;-1.504;2024-01-30T11:21:45;2.47;;;1.20;;
67997;SDS011;54773;53.388;-1.504;2024-01-30T11:24:29;2.78;;;1.25;;
67997;SDS011;54773;53.388;-1.504;2024-01-30T11:27:13;2.35;;;1.15;;
67997;SDS011;54773;53.388;-1.504;2024-01-30T11:30:02;2.53;;;1.08;;
67997;SDS011;54773;53.388;-1.504;2024-01-30T11:32:46;2.03;;;0.90;;
67997;SDS011;54773;53.388;-1.504;2024-01-30T11:35:35;1.35;;;0.60;;
67997;SDS011;54773;53.388;-1.504;2024-01-30T11:38:20;1.02;;;0.63;;
67997;SDS011;54773;53.388;-1.504;2024-01-30T11:41:05;1.83;;;0.73;;
67997;SDS011;54773;53.388;-1.504;2024-01-30T11:43:52;1.60;;;0.60;;
67997;SDS011;54773;53.388;-1.504;2024-01-30T11:46:37;1.98;;;0.75;;
67997;SDS011;54773;53.388;-1.504;2024-01-30T11:49:21;2.90;;;0.60;;
67997;SDS011;54773;53.388;-1.504;2024-01-30T11:52:05;2.55;;;1.10;;
67997;SDS011;54773;53.388;-1.504;2024-01-30T11:54:49;3.47;;;1.00;;
67997;SDS011;54773;53.388;-1.504;2024-01-30T11:57:33;1.10;;;0.60;;
67997;SDS011;54773;53.388;-1.504;2024-01-30T12:00:19;1.88;;;0.73;;
67997;SDS011;54773;53.388;-1.504;2024-01-30T12:03:04;2.92;;;1.10;;
67997;SDS011;54773;53.388;-1.504;2024-01-30T12:05:56;3.88;;;1.83;;
67997;SDS011;54773;53.388;-1.504;2024-01-30T12:08:42;2.85;;;1.10;;
67997;SDS011;54773;53.388;-1.504;2024-01-30T12:11:29;2.30;;;1.00;;
67997;SDS011;54773;53.388;-1.504;2024-01-30T12:14:14;3.35;;;1.25;;
67997;SDS011;54773;53.388;-1.504;2024-01-30T12:16:59;1.98;;;0.80;;
67997;SDS011;54773;53.388;-1.504;2024-01-30T12:19:43;1.40;;;0.70;;
67997;SDS011;54773;53.388;-1.504;2024-01-30T12:22:27;2.20;;;0.90;;
67997;SDS011;54773;53.388;-1.504;2024-01-30T12:25:12;4.47;;;2.03;;
67997;SDS011;54773;53.388;-1.504;2024-01-30T12:28:00;7.30;;;2.00;;
67997;SDS011;54773;53.388;-1.504;2024-01-30T12:30:43;2.77;;;1.20;;
67997;SDS011;54773;53.388;-1.504;2024-01-30T12:33:27;2.00;;;0.93;;
67997;SDS011;54773;53.388;-1.504;2024-01-30T12:36:12;4.60;;;2.40;;
67997;SDS011;54773;53.388;-1.504;2024-01-30T12:38:56;2.65;;;1.10;;
67997;SDS011;54773;53.388;-1.504;2024-01-30T12:41:40;2.63;;;1.15;;
67997;SDS011;54773;53.388;-1.504;2024-01-30T12:44:24;1.80;;;0.88;;
67997;SDS011;54773;53.388;-1.504;2024-01-30T12:47:09;2.22;;;1.00;;
67997;SDS011;54773;53.388;-1.504;2024-01-30T12:49:54;2.60;;;1.20;;
67997;SDS011;54773;53.388;-1.504;2024-01-30T12:52:37;1.70;;;0.83;;
67997;SDS011;54773;53.388;-1.504;2024-01-30T12:55:22;2.03;;;0.88;;
67997;SDS011;54773;53.388;-1.504;2024-01-30T12:58:07;2.15;;;0.70;;
67997;SDS011;54773;53.388;-1.504;2024-01-30T13:00:51;1.65;;;0.70;;
67997;SDS011;54773;53.388;-1.504;2024-01-30T13:03:35;1.50;;;0.70;;
67997;SDS011;54773;53.388;-1.504;2024-01-30T13:06:19;1.70;;;0.80;;
67997;SDS011;54773;53.388;-1.504;2024-01-30T13:09:04;1.08;;;0.60;;
67997;SDS011;54773;53.388;-1.504;2024-01-30T13:11:49;2.28;;;0.90;;
67997;SDS011;54773;53.388;-1.504;2024-01-30T13:14:34;1.40;;;0.70;;
67997;SDS011;54773;53.388;-1.504;2024-01-30T13:17:18;1.60;;;0.80;;
67997;SDS011;54773;53.388;-1.504;2024-01-30T13:20:02;0.97;;;0.60;;
67997;SDS011;54773;53.388;-1.504;2024-01-30T13:22:48;2.60;;;0.70;;
67997;SDS011;54773;53.388;-1.504;2024-01-30T13:25:33;1.30;;;0.60;;
67997;SDS011;54773;53.388;-1.504;2024-01-30T13:28:17;1.27;;;0.70;;
67997;SDS011;54773;53.388;-1.504;2024-01-30T13:31:01;0.95;;;0.60;;
67997;SDS011;54773;53.388;-1.504;2024-01-30T13:33:45;1.27;;;0.70;;
67997;SDS011;54773;53.388;-1.504;2024-01-30T13:36:29;0.63;;;0.40;;
67997;SDS011;54773;53.388;-1.504;2024-01-30T13:39:13;1.57;;;0.77;;
67997;SDS011;54773;53.388;-1.504;2024-01-30T13:41:58;0.73;;;0.50;;
67997;SDS011;54773;53.388;-1.504;2024-01-30T13:44:42;0.73;;;0.50;;
67997;SDS011;54773;53.388;-1.504;2024-01-30T13:47:27;1.05;;;0.43;;
67997;SDS011;54773;53.388;-1.504;2024-01-30T13:50:11;0.77;;;0.40;;
67997;SDS011;54773;53.388;-1.504;2024-01-30T13:52:58;0.50;;;0.40;;
67997;SDS011;54773;53.388;-1.504;2024-01-30T13:55:42;1.02;;;0.60;;
67997;SDS011;54773;53.388;-1.504;2024-01-30T13:58:26;2.65;;;0.70;;
67997;SDS011;54773;53.388;-1.504;2024-01-30T14:01:10;1.75;;;0.60;;
67997;SDS011;54773;53.388;-1.504;2024-01-30T14:03:54;1.45;;;0.70;;
67997;SDS011;54773;53.388;-1.504;2024-01-30T14:06:38;1.58;;;0.70;;
67997;SDS011;54773;53.388;-1.504;2024-01-30T14:09:23;2.33;;;0.70;;
67997;SDS011;54773;53.388;-1.504;2024-01-30T14:12:07;1.77;;;0.80;;
67997;SDS011;54773;53.388;-1.504;2024-01-30T14:14:51;1.73;;;0.60;;
67997;SDS011;54773;53.388;-1.504;2024-01-30T14:17:36;2.53;;;0.98;;
67997;SDS011;54773;53.388;-1.504;2024-01-30T14:20:20;2.35;;;0.80;;
67997;SDS011;54773;53.388;-1.504;2024-01-30T14:23:04;2.75;;;0.75;;
67997;SDS011;54773;53.388;-1.504;2024-01-30T14:25:48;1.80;;;0.73;;
67997;SDS011;54773;53.388;-1.504;2024-01-30T14:28:32;1.93;;;0.73;;
67997;SDS011;54773;53.388;-1.504;2024-01-30T14:31:17;1.88;;;0.60;;
67997;SDS011;54773;53.388;-1.504;2024-01-30T14:34:02;2.05;;;0.73;;
67997;SDS011;54773;53.388;-1.504;2024-01-30T14:36:46;1.85;;;0.88;;
67997;SDS011;54773;53.388;-1.504;2024-01-30T14:39:30;1.88;;;0.80;;
67997;SDS011;54773;53.388;-1.504;2024-01-30T14:42:15;1.90;;;0.75;;
67997;SDS011;54773;53.388;-1.504;2024-01-30T14:44:59;2.83;;;0.80;;
67997;SDS011;54773;53.388;-1.504;2024-01-30T14:47:43;1.92;;;0.82;;
67997;SDS011;54773;53.388;-1.504;2024-01-30T14:50:28;2.60;;;0.68;;
67997;SDS011;54773;53.388;-1.504;2024-01-30T14:53:12;2.60;;;0.80;;
67997;SDS011;54773;53.388;-1.504;2024-01-30T14:55:56;3.53;;;0.70;;
67997;SDS011;54773;53.388;-1.504;2024-01-30T14:58:40;2.30;;;0.60;;
67997;SDS011;54773;53.388;-1.504;2024-01-30T15:01:24;2.55;;;0.70;;
67997;SDS011;54773;53.388;-1.504;2024-01-30T15:04:08;2.40;;;0.70;;
67997;SDS011;54773;53.388;-1.504;2024-01-30T15:06:52;3.67;;;0.90;;
67997;SDS011;54773;53.388;-1.504;2024-01-30T15:09:37;2.53;;;0.82;;
67997;SDS011;54773;53.388;-1.504;2024-01-30T15:12:21;2.05;;;0.60;;
67997;SDS011;54773;53.388;-1.504;2024-01-30T15:15:06;2.13;;;0.70;;
67997;SDS011;54773;53.388;-1.504;2024-01-30T15:17:51;2.97;;;0.52;;
67997;SDS011;54773;53.388;-1.504;2024-01-30T15:20:35;3.30;;;0.85;;
67997;SDS011;54773;53.388;-1.504;2024-01-30T15:23:19;3.00;;;0.82;;
67997;SDS011;54773;53.388;-1.504;2024-01-30T15:26:03;4.45;;;0.85;;
67997;SDS011;54773;53.388;-1.504;2024-01-30T15:28:47;2.40;;;0.82;;
67997;SDS011;54773;53.388;-1.504;2024-01-30T15:31:31;3.20;;;0.70;;
67997;SDS011;54773;53.388;-1.504;2024-01-30T15:34:15;2.63;;;0.68;;
67997;SDS011;54773;53.388;-1.504;2024-01-30T15:36:59;3.30;;;1.05;;
67997;SDS011;54773;53.388;-1.504;2024-01-30T15:39:43;2.15;;;0.60;;
67997;SDS011;54773;53.388;-1.504;2024-01-30T15:42:28;3.37;;;0.80;;
67997;SDS011;54773;53.388;-1.504;2024-01-30T15:45:12;6.03;;;0.80;;
67997;SDS011;54773;53.388;-1.504;2024-01-30T15:47:56;3.33;;;0.93;;
67997;SDS011;54773;53.388;-1.504;2024-01-30T15:50:41;3.08;;;0.90;;
67997;SDS011;54773;53.388;-1.504;2024-01-30T15:53:25;2.73;;;0.83;;
67997;SDS011;54773;53.388;-1.504;2024-01-30T15:56:10;3.97;;;0.82;;
67997;SDS011;54773;53.388;-1.504;2024-01-30T15:58:54;8.32;;;1.10;;
67997;SDS011;54773;53.388;-1.504;2024-01-30T16:01:38;2.78;;;0.70;;
67997;SDS011;54773;53.388;-1.504;2024-01-30T16:04:22;3.83;;;0.80;;
67997;SDS011;54773;53.388;-1.504;2024-01-30T16:07:07;6.90;;;1.67;;
67997;SDS011;54773;53.388;-1.504;2024-01-30T16:09:51;4.57;;;1.23;;
67997;SDS011;54773;53.388;-1.504;2024-01-30T16:12:35;4.93;;;0.90;;
67997;SDS011;54773;53.388;-1.504;2024-01-30T16:15:19;2.65;;;0.90;;
67997;SDS011;54773;53.388;-1.504;2024-01-30T16:18:03;4.68;;;1.60;;
67997;SDS011;54773;53.388;-1.504;2024-01-30T16:20:47;2.85;;;0.90;;
67997;SDS011;54773;53.388;-1.504;2024-01-30T16:23:31;4.68;;;1.17;;